Fédération internationale de Ski
Member Section
Print

OFFICIAL RESULTS

Goms (SUI) 28.01.2018

Sprint Qualification WJC - Ladies' SP F Qual OFFICIAL RESULTS

Race codex : 2293
Valid for FIS Points : YES



TD FIS TEJCHMAN JAKUB MISCHOL SERAINA CZE SUI
 
Show more info»

Competitors

Display filter form
Rank Bib FIS Code Name Year Nation Time Behind FIS Points
 1  1  3506079 LUNDGREN Moa  1998  SWE   3:03.64     73.33
 2  9  3506105 HAGSTROEM Johanna  1998  SWE   3:05.24  +1.60  83.79
 3  2  3426626 SKISTAD Kristine Stavaas  1999  NOR   3:06.44  +2.80  91.63
 4  7  3506154 KARLSSON Frida  1999  SWE   3:09.92  +6.28  114.37
 5  6  3535606 HALVORSEN Hannah  1998  USA   3:10.28  +6.64  116.72
 6  16  3185752 KORVA Anita  1999  FIN   3:11.13  +7.49  122.27
 7  10  3426496 MYHRVOLD Mathilde  1998  NOR   3:11.59  +7.95  125.28
 8  38  3185828 KAHARA Jasmin  2000  FIN   3:11.93  +8.29  127.50
 9  32  3195250 CHAMIOT MAITRAL Laura  1998  FRA   3:12.53  +8.89  131.42
 10  11  3515273 FISCHER Lea  1998  SUI   3:13.39  +9.75  137.04
 11  52  3185702 PIIPPO Eveliina  1998  FIN   3:13.79  +10.15  139.66
 12  8  3555052 EIDUKA Patricija  2000  LAT   3:14.19  +10.55  142.27
 13  41  3205651 LOHMANN Lisa  2000  GER   3:14.63  +10.99  145.14
 14  4  3486563 MATSOKINA Hristina  1998  RUS   3:15.08  +11.44  148.08
 15  26  3205655 DANNER Alexandra  1999  GER   3:15.66  +12.02  151.87
 16  36  3155344 BERANOVA Tereza  1998  CZE   3:17.27  +13.63  162.40
 17  40  3155357 HOLIKOVA Zuzana  1999  CZE   3:17.54  +13.90  164.16
 18  54  3195283 SIMONNEAU Solea  1999  FRA   3:17.72  +14.08  165.34
 19  22  3205634 DIETZE Anna-Maria  1999  GER   3:17.99  +14.35  167.10
 20  5  3486177 BAYAZITOVA Aida  1998  RUS   3:18.02  +14.38  167.30
 21  27  3535712 GELLERT Margaret  2000  USA   3:18.32  +14.68  169.26
 22  17  3395115 PULLES Mariel Merlii  1998  EST   3:18.37  +14.73  169.58
 23  24  3195263 QUINTIN Lena  1998  FRA   3:18.47  +14.83  170.24
 24  29  3295283 BELLINI Martina  1998  ITA   3:18.52  +14.88  170.56
 25  13  3515289 STEINER Desiree  1998  SUI   3:18.73  +15.09  171.94
 26  69  3535607 SHOMENTO Sofia  1999  USA   3:18.86  +15.22  172.79
 27  18  3105268 MEHAIN Hannah  1998  CAN   3:19.11  +15.47  174.42
 28  20  3486655 KUSKOVA Kristina  2000  RUS   3:19.70  +16.06  178.27
 29  43  3295342 DE ZOLT PONTE Chiara  1998  ITA   3:19.93  +16.29  179.78
 30  56  3515290 HEUBERGER Carine  1998  SUI   3:20.49  +16.85  183.44
 31  49  3435197 MARCISZ Izabela  2000  POL   3:20.52  +16.88  183.63
 32  35  3295343 PITTIN Cristina  1998  ITA   3:20.69  +17.05  184.74
 33  31  3506075 PERSSON Alicia  1998  SWE   3:20.77  +17.13  185.27
 34  15  3426537 OLSEN Amalie Honerud  1998  NOR   3:21.67  +18.03  191.15
 35  33  3535693 RUDD Hannah  1998  USA   3:21.79  +18.15  191.93
 36  12  3426482 MIDTSKOGEN Maiken Min  1998  NOR   3:21.81  +18.17  192.06
 37  59  3195273 GAL Melissa  1999  FRA   3:21.82  +18.18  192.13
 38  28  3565090 MANDELJC Anja  1999  SLO   3:22.48  +18.84  196.44
 39  48  3155339 TVARUZKOVA Tereza  1998  CZE   3:22.56  +18.92  196.96
 40  3  3486289 NEKRASOVA Polina  1998  RUS   3:23.13  +19.49  200.69
 41  34  3305268 SOBUE Rin  2000  JPN   3:23.54  +19.90  203.37
 42  50  3055126 JUPPE Anna  1999  AUT   3:23.61  +19.97  203.82
 43  51  3305263 KOBAYASHI Chika  1998  JPN   3:24.00  +20.36  206.37
 44  57  3395114 TRUU Stine-lise  1999  EST   3:24.11  +20.47  207.09
 45  39  3435189 RUCKA Eliza  2000  POL   3:24.48  +20.84  209.51
 46  63  3295380 GLAREY Noemi  1999  ITA   3:24.68  +21.04  210.82
 47  44  3515286 MATTER Nadine  1998  SUI   3:24.86  +21.22  211.99
 48  64  3665088 KARALIOVA Hanna  1998  BLR   3:24.89  +21.25  212.19
 49  21  3695082 KROL Yuliia  1998  UKR   3:25.03  +21.39  213.10
 49  23  3675060 SHALYGINA Kseniya  1998  KAZ   3:25.03  +21.39  213.10
 51  46  3565084 KLEMENCIC Nina  1998  SLO   3:25.91  +22.27  218.85
 52  19  3105236 RICHARDSON Annika  1998  CAN   3:27.73  +24.09  230.75
 53  55  3395127 KAASIK Hanna-brita  1999  EST   3:28.49  +24.85  235.71
 54  30  3305258 MIYAZAKI Hikari  1998  JPN   3:28.96  +25.32  238.78
 55  68  3205667 HOFMANN Amelie  2000  GER   3:30.55  +26.91  249.17
 56  25  3105210 REED-METAYER Catherine  1998  CAN   3:31.89  +28.25  257.93
 57  60  3095087 OKORO Nansi  1999  BUL   3:32.21  +28.57  260.02
 58  71  3055136 BRUDERMANN Katharina  1999  AUT   3:33.18  +29.54  266.36
 59  73  3665086 ANDRYIUK Sviatlana  1999  BLR   3:33.51  +29.87  268.52
 60  53  3675106 KHMELNITSKAYA Anastassiya  2000  KAZ   3:33.95  +30.31  271.39
 61  58  3155358 VOTOCKOVA Pavlina  1999  CZE   3:34.03  +30.39  271.91
 62  45  3675103 KADIROVA Gulsina  1999  KAZ   3:34.09  +30.45  272.31
 63  37  3435184 KOLODZIEJ Klaudia  1998  POL   3:34.49  +30.85  274.92
 64  66  3305335 TOCHITANI Nodoka  2001  JPN   3:34.63  +30.99  275.83
 65  67  3055142 ERHARTER Stefanie  1999  AUT   3:34.70  +31.06  276.29
 66  65  3665100 KUZNECHYK Varvara  1998  BLR   3:34.93  +31.29  277.80
 67  47  3665101 DAVYDZENKA Valeryia  2000  BLR   3:37.28  +33.64  293.15
 68  42  3185688 LAMSA Emmi  1998  FIN   3:38.78  +35.14  302.95
 69  61  3105245 RACINE Alexandra  1999  CAN   3:40.91  +37.27  316.87
 70  72  3705061 MICHALICKOVA Lucia   1999  SVK   3:44.16  +40.52  338.11
 71  74  3095088 EMILOVA Vanesa  2000  BUL   3:44.62  +40.98  341.11
 72  62  3675090 TARASSOVA Anzhelika  1999  KAZ   3:51.30  +47.66  384.77
 73  78  3525048 KACMAZ Seher  1998  TUR   4:02.46  +58.82  457.69
 74  76  3695093 VASYLCHUK Nataliia  1999  UKR   4:02.87  +59.23  460.37
 75  77  3245028 PONYA Sara  1999  HUN   4:05.93  +1:02.29  480.37
 76  70  3385037 SKENDER Gabrijela  1999  CRO   4:18.66  +1:15.02  563.55
 77  79  3245027 TAMAS Bianka  1999  HUN   4:32.50  +1:28.86  653.99
 78  80  3245030 KOCSIK Nora  2001  HUN   4:44.35  +1:40.71  731.42
 79  81  3345002 RAHME Lea  1999  LBN   7:18.04  +4:14.40  1735.71
Disqualified
   14  3435201 SKINDER Monika  2001  POL       
Did not start
   75  3355004 RIEDENER Nina  2000  LIE       
 
 
Sanctions
 3435201  SKINDER Monika  POL  
   Disqualification, ICR 343.6 did not follow marked course